Terminal Aerodrome Forecast
Issued by NWS Louisville, KY

Home | Current Version | Previous Version | Text Only | Print | Product List | Glossary On
Versions: 1 2 3 4 5 6 7 8 9 10 11 12 13 14 15 16 17 18 19 20 21 22 23
000
FTUS43 KLMK 200500
TAFSDF
TAF
KSDF 200520Z 2006/2112 20006KT P6SM FEW040 BKN200
     FM201100 21004KT 6SM BR FEW100
     FM201300 23006KT P6SM SCT040
     FM202200 20004KT P6SM VCTS BKN050CB
     FM210400 18003KT P6SM SCT050 BKN250=

USA.gov is the U.S. government's official web portal to all federal, state and local government web resources and services.